sensor_id;sensor_type;location;lat;lon;timestamp;temperature;humidity
22526;DHT22;11429;50.842;4.386;2022-09-09T00:04:34;15.50;99.90
22526;DHT22;11429;50.842;4.386;2022-09-09T00:15:12;15.50;99.90
22526;DHT22;11429;50.842;4.386;2022-09-09T00:17:53;15.50;99.90
22526;DHT22;11429;50.842;4.386;2022-09-09T00:23:17;15.40;99.90
22526;DHT22;11429;50.842;4.386;2022-09-09T00:26:11;15.40;99.90
22526;DHT22;11429;50.842;4.386;2022-09-09T00:28:45;15.30;99.90
22526;DHT22;11429;50.842;4.386;2022-09-09T00:31:16;15.40;99.90
22526;DHT22;11429;50.842;4.386;2022-09-09T00:33:44;15.50;99.90
22526;DHT22;11429;50.842;4.386;2022-09-09T00:36:14;15.50;99.90
22526;DHT22;11429;50.842;4.386;2022-09-09T00:38:48;15.50;99.90
22526;DHT22;11429;50.842;4.386;2022-09-09T00:46:53;15.60;99.90
22526;DHT22;11429;50.842;4.386;2022-09-09T00:55:09;15.60;99.90
22526;DHT22;11429;50.842;4.386;2022-09-09T00:57:37;15.60;99.90
22526;DHT22;11429;50.842;4.386;2022-09-09T01:06:02;15.40;99.90
22526;DHT22;11429;50.842;4.386;2022-09-09T01:14:29;15.60;99.90
22526;DHT22;11429;50.842;4.386;2022-09-09T01:17:09;15.60;99.90
22526;DHT22;11429;50.842;4.386;2022-09-09T01:27:55;15.60;99.90
22526;DHT22;11429;50.842;4.386;2022-09-09T01:30:22;15.60;99.90
22526;DHT22;11429;50.842;4.386;2022-09-09T01:32:55;15.60;99.90
22526;DHT22;11429;50.842;4.386;2022-09-09T01:35:42;15.60;99.90
22526;DHT22;11429;50.842;4.386;2022-09-09T01:38:09;15.60;99.90
22526;DHT22;11429;50.842;4.386;2022-09-09T01:40:35;15.50;99.90
22526;DHT22;11429;50.842;4.386;2022-09-09T01:43:02;15.60;99.90
22526;DHT22;11429;50.842;4.386;2022-09-09T01:45:29;15.60;99.90
22526;DHT22;11429;50.842;4.386;2022-09-09T01:47:56;15.60;99.90
22526;DHT22;11429;50.842;4.386;2022-09-09T01:50:22;15.50;99.90
22526;DHT22;11429;50.842;4.386;2022-09-09T01:52:52;15.40;99.90
22526;DHT22;11429;50.842;4.386;2022-09-09T01:55:32;15.50;99.90
22526;DHT22;11429;50.842;4.386;2022-09-09T02:03:54;15.60;99.90
22526;DHT22;11429;50.842;4.386;2022-09-09T02:08:49;15.50;99.90
22526;DHT22;11429;50.842;4.386;2022-09-09T02:11:17;15.50;99.90
22526;DHT22;11429;50.842;4.386;2022-09-09T02:13:45;15.60;99.90
22526;DHT22;11429;50.842;4.386;2022-09-09T02:17:01;15.60;99.90
22526;DHT22;11429;50.842;4.386;2022-09-09T02:21:33;15.60;99.90
22526;DHT22;11429;50.842;4.386;2022-09-09T02:24:05;15.70;99.90
22526;DHT22;11429;50.842;4.386;2022-09-09T02:26:38;15.60;99.90
22526;DHT22;11429;50.842;4.386;2022-09-09T02:29:09;15.70;99.90
22526;DHT22;11429;50.842;4.386;2022-09-09T02:31:37;15.70;99.90
22526;DHT22;11429;50.842;4.386;2022-09-09T02:34:05;15.60;99.90
22526;DHT22;11429;50.842;4.386;2022-09-09T02:36:33;15.60;99.90
22526;DHT22;11429;50.842;4.386;2022-09-09T02:39:00;15.70;99.90
22526;DHT22;11429;50.842;4.386;2022-09-09T02:41:33;15.70;99.90
22526;DHT22;11429;50.842;4.386;2022-09-09T02:43:59;15.70;99.90
22526;DHT22;11429;50.842;4.386;2022-09-09T02:52:07;15.70;99.90
22526;DHT22;11429;50.842;4.386;2022-09-09T02:54:35;15.80;99.90
22526;DHT22;11429;50.842;4.386;2022-09-09T02:57:22;15.70;99.90
22526;DHT22;11429;50.842;4.386;2022-09-09T02:59:50;15.70;99.90
22526;DHT22;11429;50.842;4.386;2022-09-09T03:02:17;15.60;99.90
22526;DHT22;11429;50.842;4.386;2022-09-09T03:04:44;15.60;99.90
22526;DHT22;11429;50.842;4.386;2022-09-09T03:07:16;15.70;99.90
22526;DHT22;11429;50.842;4.386;2022-09-09T03:09:42;15.60;99.90
22526;DHT22;11429;50.842;4.386;2022-09-09T03:12:08;15.60;99.90
22526;DHT22;11429;50.842;4.386;2022-09-09T03:14:35;15.70;99.90
22526;DHT22;11429;50.842;4.386;2022-09-09T03:17:01;15.70;99.90
22526;DHT22;11429;50.842;4.386;2022-09-09T03:19:27;15.60;99.90
22526;DHT22;11429;50.842;4.386;2022-09-09T03:21:53;15.60;99.90
22526;DHT22;11429;50.842;4.386;2022-09-09T03:24:20;15.60;99.90
22526;DHT22;11429;50.842;4.386;2022-09-09T03:26:45;15.60;99.90
22526;DHT22;11429;50.842;4.386;2022-09-09T03:29:12;15.60;99.90
22526;DHT22;11429;50.842;4.386;2022-09-09T03:31:39;15.60;99.90
22526;DHT22;11429;50.842;4.386;2022-09-09T03:34:06;15.50;99.90
22526;DHT22;11429;50.842;4.386;2022-09-09T03:36:32;15.50;99.90
22526;DHT22;11429;50.842;4.386;2022-09-09T03:38:58;15.50;99.90
22526;DHT22;11429;50.842;4.386;2022-09-09T03:41:24;15.50;99.90
22526;DHT22;11429;50.842;4.386;2022-09-09T03:43:51;15.50;99.90
22526;DHT22;11429;50.842;4.386;2022-09-09T03:46:17;15.40;99.90
22526;DHT22;11429;50.842;4.386;2022-09-09T03:48:43;15.40;99.90
22526;DHT22;11429;50.842;4.386;2022-09-09T03:51:09;15.50;99.90
22526;DHT22;11429;50.842;4.386;2022-09-09T03:53:36;15.50;99.90
22526;DHT22;11429;50.842;4.386;2022-09-09T03:56:04;15.40;99.90
22526;DHT22;11429;50.842;4.386;2022-09-09T03:58:35;15.40;99.90
22526;DHT22;11429;50.842;4.386;2022-09-09T04:01:10;15.50;99.90
22526;DHT22;11429;50.842;4.386;2022-09-09T04:03:37;15.50;99.90
22526;DHT22;11429;50.842;4.386;2022-09-09T04:06:04;15.50;99.90
22526;DHT22;11429;50.842;4.386;2022-09-09T04:08:31;15.50;99.90
22526;DHT22;11429;50.842;4.386;2022-09-09T04:10:57;15.50;99.90
22526;DHT22;11429;50.842;4.386;2022-09-09T04:13:24;15.60;99.90
22526;DHT22;11429;50.842;4.386;2022-09-09T04:15:59;15.60;99.90
22526;DHT22;11429;50.842;4.386;2022-09-09T04:18:26;15.60;99.90
22526;DHT22;11429;50.842;4.386;2022-09-09T04:20:53;15.60;99.90
22526;DHT22;11429;50.842;4.386;2022-09-09T04:23:20;15.60;99.90
22526;DHT22;11429;50.842;4.386;2022-09-09T04:25:50;15.50;99.90
22526;DHT22;11429;50.842;4.386;2022-09-09T04:28:18;15.50;99.90
22526;DHT22;11429;50.842;4.386;2022-09-09T04:30:44;15.50;99.90
22526;DHT22;11429;50.842;4.386;2022-09-09T04:33:11;15.40;99.90
22526;DHT22;11429;50.842;4.386;2022-09-09T04:35:38;15.40;99.90
22526;DHT22;11429;50.842;4.386;2022-09-09T04:38:04;15.40;99.90
22526;DHT22;11429;50.842;4.386;2022-09-09T04:40:31;15.40;99.90
22526;DHT22;11429;50.842;4.386;2022-09-09T04:43:01;15.40;99.90
22526;DHT22;11429;50.842;4.386;2022-09-09T04:45:28;15.40;99.90
22526;DHT22;11429;50.842;4.386;2022-09-09T04:47:54;15.40;99.90
22526;DHT22;11429;50.842;4.386;2022-09-09T04:50:20;15.40;99.90
22526;DHT22;11429;50.842;4.386;2022-09-09T04:52:46;15.40;99.90
22526;DHT22;11429;50.842;4.386;2022-09-09T04:55:12;15.40;99.90
22526;DHT22;11429;50.842;4.386;2022-09-09T04:57:38;15.30;99.90
22526;DHT22;11429;50.842;4.386;2022-09-09T05:00:05;15.30;99.90
22526;DHT22;11429;50.842;4.386;2022-09-09T05:02:31;15.40;99.90
22526;DHT22;11429;50.842;4.386;2022-09-09T05:04:57;15.40;99.90
22526;DHT22;11429;50.842;4.386;2022-09-09T05:07:23;15.40;99.90
22526;DHT22;11429;50.842;4.386;2022-09-09T05:09:49;15.40;99.90
22526;DHT22;11429;50.842;4.386;2022-09-09T05:12:16;15.40;99.90
22526;DHT22;11429;50.842;4.386;2022-09-09T05:14:43;15.40;99.90
22526;DHT22;11429;50.842;4.386;2022-09-09T05:17:09;15.40;99.90
22526;DHT22;11429;50.842;4.386;2022-09-09T05:19:35;15.50;99.90
22526;DHT22;11429;50.842;4.386;2022-09-09T05:22:02;15.50;99.90
22526;DHT22;11429;50.842;4.386;2022-09-09T05:24:28;15.60;99.90
22526;DHT22;11429;50.842;4.386;2022-09-09T05:26:54;15.60;99.90
22526;DHT22;11429;50.842;4.386;2022-09-09T05:29:23;15.60;99.90
22526;DHT22;11429;50.842;4.386;2022-09-09T05:31:49;15.60;99.90
22526;DHT22;11429;50.842;4.386;2022-09-09T05:34:14;15.80;99.90
22526;DHT22;11429;50.842;4.386;2022-09-09T05:36:40;15.80;99.90
22526;DHT22;11429;50.842;4.386;2022-09-09T05:39:06;15.80;99.90
22526;DHT22;11429;50.842;4.386;2022-09-09T05:41:31;15.80;99.90
22526;DHT22;11429;50.842;4.386;2022-09-09T05:43:58;15.80;99.90
22526;DHT22;11429;50.842;4.386;2022-09-09T05:46:26;15.70;99.90
22526;DHT22;11429;50.842;4.386;2022-09-09T05:48:53;15.80;99.90
22526;DHT22;11429;50.842;4.386;2022-09-09T05:51:21;15.70;99.90
22526;DHT22;11429;50.842;4.386;2022-09-09T05:53:48;15.70;99.90
22526;DHT22;11429;50.842;4.386;2022-09-09T05:56:25;15.80;99.90
22526;DHT22;11429;50.842;4.386;2022-09-09T05:58:51;15.80;99.90
22526;DHT22;11429;50.842;4.386;2022-09-09T06:01:24;15.80;99.90
22526;DHT22;11429;50.842;4.386;2022-09-09T06:03:50;16.00;99.90
22526;DHT22;11429;50.842;4.386;2022-09-09T06:06:22;16.50;99.90
22526;DHT22;11429;50.842;4.386;2022-09-09T06:08:50;16.60;99.90
22526;DHT22;11429;50.842;4.386;2022-09-09T06:11:21;16.30;99.90
22526;DHT22;11429;50.842;4.386;2022-09-09T06:13:47;16.20;99.90
22526;DHT22;11429;50.842;4.386;2022-09-09T06:16:17;16.20;99.90
22526;DHT22;11429;50.842;4.386;2022-09-09T06:18:45;16.60;99.90
22526;DHT22;11429;50.842;4.386;2022-09-09T06:21:17;16.70;99.90
22526;DHT22;11429;50.842;4.386;2022-09-09T06:23:42;16.90;99.90
22526;DHT22;11429;50.842;4.386;2022-09-09T06:26:16;16.80;99.90
22526;DHT22;11429;50.842;4.386;2022-09-09T06:28:45;16.70;99.90
22526;DHT22;11429;50.842;4.386;2022-09-09T06:31:12;16.80;99.90
22526;DHT22;11429;50.842;4.386;2022-09-09T06:33:40;16.80;99.90
22526;DHT22;11429;50.842;4.386;2022-09-09T06:36:18;16.80;99.90
22526;DHT22;11429;50.842;4.386;2022-09-09T06:38:45;16.60;99.90
22526;DHT22;11429;50.842;4.386;2022-09-09T06:41:13;16.40;99.90
22526;DHT22;11429;50.842;4.386;2022-09-09T06:43:39;16.40;99.90
22526;DHT22;11429;50.842;4.386;2022-09-09T06:46:14;16.40;99.90
22526;DHT22;11429;50.842;4.386;2022-09-09T06:48:40;16.30;99.90
22526;DHT22;11429;50.842;4.386;2022-09-09T06:51:18;16.30;99.90
22526;DHT22;11429;50.842;4.386;2022-09-09T06:53:46;16.20;99.90
22526;DHT22;11429;50.842;4.386;2022-09-09T06:56:18;16.30;99.90
22526;DHT22;11429;50.842;4.386;2022-09-09T06:58:45;16.40;99.90
22526;DHT22;11429;50.842;4.386;2022-09-09T07:01:13;16.50;99.90
22526;DHT22;11429;50.842;4.386;2022-09-09T07:03:40;16.50;99.90
22526;DHT22;11429;50.842;4.386;2022-09-09T07:06:06;16.60;99.90
22526;DHT22;11429;50.842;4.386;2022-09-09T07:08:33;16.60;99.90
22526;DHT22;11429;50.842;4.386;2022-09-09T07:11:03;16.60;99.90
22526;DHT22;11429;50.842;4.386;2022-09-09T07:13:30;16.60;99.90
22526;DHT22;11429;50.842;4.386;2022-09-09T07:16:10;16.70;99.90
22526;DHT22;11429;50.842;4.386;2022-09-09T07:18:36;16.70;99.90
22526;DHT22;11429;50.842;4.386;2022-09-09T07:21:03;16.80;99.90
22526;DHT22;11429;50.842;4.386;2022-09-09T07:23:30;16.70;99.90
22526;DHT22;11429;50.842;4.386;2022-09-09T07:25:57;16.70;99.90
22526;DHT22;11429;50.842;4.386;2022-09-09T07:28:23;16.80;99.90
22526;DHT22;11429;50.842;4.386;2022-09-09T07:30:57;16.70;99.90
22526;DHT22;11429;50.842;4.386;2022-09-09T07:33:24;16.70;99.90
22526;DHT22;11429;50.842;4.386;2022-09-09T07:35:50;16.70;99.90
22526;DHT22;11429;50.842;4.386;2022-09-09T07:38:16;16.80;99.90
22526;DHT22;11429;50.842;4.386;2022-09-09T07:40:42;16.80;99.90
22526;DHT22;11429;50.842;4.386;2022-09-09T07:43:07;16.70;99.90
22526;DHT22;11429;50.842;4.386;2022-09-09T07:45:34;16.60;99.90
22526;DHT22;11429;50.842;4.386;2022-09-09T07:48:01;16.50;99.90
22526;DHT22;11429;50.842;4.386;2022-09-09T07:50:27;16.40;99.90
22526;DHT22;11429;50.842;4.386;2022-09-09T07:52:53;16.40;99.90
22526;DHT22;11429;50.842;4.386;2022-09-09T07:55:22;16.30;99.90
22526;DHT22;11429;50.842;4.386;2022-09-09T07:57:53;16.40;99.90
22526;DHT22;11429;50.842;4.386;2022-09-09T08:00:19;16.40;99.90
22526;DHT22;11429;50.842;4.386;2022-09-09T08:02:45;16.50;99.90
22526;DHT22;11429;50.842;4.386;2022-09-09T08:05:12;16.60;99.90
22526;DHT22;11429;50.842;4.386;2022-09-09T08:07:38;16.60;99.90
22526;DHT22;11429;50.842;4.386;2022-09-09T08:10:04;16.80;99.90
22526;DHT22;11429;50.842;4.386;2022-09-09T08:12:32;17.00;99.90
22526;DHT22;11429;50.842;4.386;2022-09-09T08:14:58;17.30;99.90
22526;DHT22;11429;50.842;4.386;2022-09-09T08:17:24;17.60;99.90
22526;DHT22;11429;50.842;4.386;2022-09-09T08:19:50;17.80;99.90
22526;DHT22;11429;50.842;4.386;2022-09-09T08:22:16;17.70;99.90
22526;DHT22;11429;50.842;4.386;2022-09-09T08:24:42;17.60;99.90
22526;DHT22;11429;50.842;4.386;2022-09-09T08:27:07;17.30;99.90
22526;DHT22;11429;50.842;4.386;2022-09-09T08:29:35;17.20;99.90
22526;DHT22;11429;50.842;4.386;2022-09-09T08:32:03;17.40;99.90
22526;DHT22;11429;50.842;4.386;2022-09-09T08:34:28;17.30;99.90
22526;DHT22;11429;50.842;4.386;2022-09-09T08:36:55;17.30;99.90
22526;DHT22;11429;50.842;4.386;2022-09-09T08:39:22;17.20;99.90
22526;DHT22;11429;50.842;4.386;2022-09-09T08:47:51;17.10;99.90
22526;DHT22;11429;50.842;4.386;2022-09-09T08:53:23;17.00;99.90
22526;DHT22;11429;50.842;4.386;2022-09-09T08:55:59;16.80;99.90
22526;DHT22;11429;50.842;4.386;2022-09-09T08:58:34;16.80;99.90
22526;DHT22;11429;50.842;4.386;2022-09-09T09:04:04;16.90;99.90
22526;DHT22;11429;50.842;4.386;2022-09-09T09:11:50;16.90;99.90
22526;DHT22;11429;50.842;4.386;2022-09-09T09:14:24;16.90;99.90
22526;DHT22;11429;50.842;4.386;2022-09-09T09:19:41;16.80;99.90
22526;DHT22;11429;50.842;4.386;2022-09-09T09:30:21;16.70;99.90
22526;DHT22;11429;50.842;4.386;2022-09-09T09:33:27;16.70;99.90
22526;DHT22;11429;50.842;4.386;2022-09-09T09:35:53;16.70;99.90
22526;DHT22;11429;50.842;4.386;2022-09-09T09:38:24;16.60;99.90
22526;DHT22;11429;50.842;4.386;2022-09-09T09:40:58;16.70;99.90
22526;DHT22;11429;50.842;4.386;2022-09-09T09:43:35;16.70;99.90
22526;DHT22;11429;50.842;4.386;2022-09-09T09:46:04;16.70;99.90
22526;DHT22;11429;50.842;4.386;2022-09-09T09:48:29;16.80;99.90
22526;DHT22;11429;50.842;4.386;2022-09-09T09:51:00;16.90;99.90
22526;DHT22;11429;50.842;4.386;2022-09-09T09:53:28;16.90;99.90
22526;DHT22;11429;50.842;4.386;2022-09-09T09:56:00;16.80;99.90
22526;DHT22;11429;50.842;4.386;2022-09-09T09:58:29;16.90;99.90
22526;DHT22;11429;50.842;4.386;2022-09-09T10:00:57;16.90;99.90
22526;DHT22;11429;50.842;4.386;2022-09-09T10:03:30;17.00;99.90
22526;DHT22;11429;50.842;4.386;2022-09-09T10:05:56;17.10;99.90
22526;DHT22;11429;50.842;4.386;2022-09-09T10:08:26;17.10;99.90
22526;DHT22;11429;50.842;4.386;2022-09-09T10:19:02;17.00;99.90
22526;DHT22;11429;50.842;4.386;2022-09-09T10:26:53;17.10;99.90
22526;DHT22;11429;50.842;4.386;2022-09-09T10:32:33;17.20;99.90
22526;DHT22;11429;50.842;4.386;2022-09-09T10:38:14;17.80;99.90
22526;DHT22;11429;50.842;4.386;2022-09-09T10:43:17;18.30;99.90
22526;DHT22;11429;50.842;4.386;2022-09-09T10:51:23;18.20;99.90
22526;DHT22;11429;50.842;4.386;2022-09-09T10:56:23;18.70;99.90
22526;DHT22;11429;50.842;4.386;2022-09-09T11:02:01;18.70;99.90
22526;DHT22;11429;50.842;4.386;2022-09-09T11:04:33;18.80;99.90
22526;DHT22;11429;50.842;4.386;2022-09-09T11:07:05;18.80;99.90
22526;DHT22;11429;50.842;4.386;2022-09-09T11:09:37;18.60;99.90
22526;DHT22;11429;50.842;4.386;2022-09-09T11:12:05;18.70;99.90
22526;DHT22;11429;50.842;4.386;2022-09-09T11:14:43;18.60;99.90
22526;DHT22;11429;50.842;4.386;2022-09-09T11:17:56;18.60;99.90
22526;DHT22;11429;50.842;4.386;2022-09-09T11:20:05;18.80;99.90
22526;DHT22;11429;50.842;4.386;2022-09-09T11:22:37;18.90;99.90
22526;DHT22;11429;50.842;4.386;2022-09-09T11:27:57;19.40;99.90
22526;DHT22;11429;50.842;4.386;2022-09-09T11:36:25;19.20;99.90
22526;DHT22;11429;50.842;4.386;2022-09-09T11:38:56;19.00;99.90
22526;DHT22;11429;50.842;4.386;2022-09-09T11:41:36;18.90;99.90
22526;DHT22;11429;50.842;4.386;2022-09-09T11:44:17;19.10;99.90
22526;DHT22;11429;50.842;4.386;2022-09-09T11:46:49;18.80;99.90
22526;DHT22;11429;50.842;4.386;2022-09-09T11:49:42;19.00;99.90
22526;DHT22;11429;50.842;4.386;2022-09-09T11:54:49;19.50;99.90
22526;DHT22;11429;50.842;4.386;2022-09-09T11:57:30;19.50;99.90
22526;DHT22;11429;50.842;4.386;2022-09-09T11:59:58;19.80;99.90
22526;DHT22;11429;50.842;4.386;2022-09-09T12:02:27;19.60;99.90
22526;DHT22;11429;50.842;4.386;2022-09-09T12:05:04;19.50;99.90
22526;DHT22;11429;50.842;4.386;2022-09-09T12:07:46;19.50;99.90
22526;DHT22;11429;50.842;4.386;2022-09-09T12:10:34;19.50;99.90
22526;DHT22;11429;50.842;4.386;2022-09-09T12:13:27;19.40;99.90
22526;DHT22;11429;50.842;4.386;2022-09-09T12:15:55;19.30;99.90
22526;DHT22;11429;50.842;4.386;2022-09-09T12:18:31;19.30;99.90
22526;DHT22;11429;50.842;4.386;2022-09-09T12:20:59;19.20;99.90
22526;DHT22;11429;50.842;4.386;2022-09-09T12:23:37;19.20;99.90
22526;DHT22;11429;50.842;4.386;2022-09-09T12:26:26;19.30;99.90
22526;DHT22;11429;50.842;4.386;2022-09-09T12:36:58;19.60;99.90
22526;DHT22;11429;50.842;4.386;2022-09-09T12:39:33;20.00;99.90
22526;DHT22;11429;50.842;4.386;2022-09-09T12:42:01;20.00;99.90
22526;DHT22;11429;50.842;4.386;2022-09-09T12:44:29;20.20;99.90
22526;DHT22;11429;50.842;4.386;2022-09-09T12:46:59;20.10;99.90
22526;DHT22;11429;50.842;4.386;2022-09-09T12:49:32;20.00;99.90
22526;DHT22;11429;50.842;4.386;2022-09-09T12:52:30;20.10;99.90
22526;DHT22;11429;50.842;4.386;2022-09-09T12:54:55;20.40;99.90
22526;DHT22;11429;50.842;4.386;2022-09-09T12:57:23;20.50;99.90
22526;DHT22;11429;50.842;4.386;2022-09-09T12:59:51;20.50;99.90
22526;DHT22;11429;50.842;4.386;2022-09-09T13:02:25;20.60;99.90
22526;DHT22;11429;50.842;4.386;2022-09-09T13:04:52;20.70;99.90
22526;DHT22;11429;50.842;4.386;2022-09-09T13:07:19;20.80;99.90
22526;DHT22;11429;50.842;4.386;2022-09-09T13:09:47;20.80;99.90
22526;DHT22;11429;50.842;4.386;2022-09-09T13:12:19;20.70;99.90
22526;DHT22;11429;50.842;4.386;2022-09-09T13:14:56;21.10;99.90
22526;DHT22;11429;50.842;4.386;2022-09-09T13:17:24;20.90;99.90
22526;DHT22;11429;50.842;4.386;2022-09-09T13:19:51;20.80;99.90
22526;DHT22;11429;50.842;4.386;2022-09-09T13:22:30;20.90;99.90
22526;DHT22;11429;50.842;4.386;2022-09-09T13:25:21;21.00;99.90
22526;DHT22;11429;50.842;4.386;2022-09-09T13:27:56;21.20;99.90
22526;DHT22;11429;50.842;4.386;2022-09-09T13:30:28;21.00;99.90
22526;DHT22;11429;50.842;4.386;2022-09-09T13:35:31;20.70;99.90
22526;DHT22;11429;50.842;4.386;2022-09-09T13:37:58;20.60;99.90
22526;DHT22;11429;50.842;4.386;2022-09-09T13:40:26;21.10;99.90
22526;DHT22;11429;50.842;4.386;2022-09-09T13:42:55;21.30;99.90
22526;DHT22;11429;50.842;4.386;2022-09-09T13:45:24;21.50;99.90
22526;DHT22;11429;50.842;4.386;2022-09-09T13:47:53;21.40;99.90
22526;DHT22;11429;50.842;4.386;2022-09-09T13:50:27;21.20;99.90
22526;DHT22;11429;50.842;4.386;2022-09-09T13:52:55;21.20;99.90
22526;DHT22;11429;50.842;4.386;2022-09-09T13:55:27;21.20;99.90
22526;DHT22;11429;50.842;4.386;2022-09-09T14:00:23;21.40;99.90
22526;DHT22;11429;50.842;4.386;2022-09-09T14:02:52;21.40;99.90
22526;DHT22;11429;50.842;4.386;2022-09-09T14:05:20;21.70;99.90
22526;DHT22;11429;50.842;4.386;2022-09-09T14:07:47;21.70;99.90
22526;DHT22;11429;50.842;4.386;2022-09-09T14:10:13;21.70;99.90
22526;DHT22;11429;50.842;4.386;2022-09-09T14:12:39;21.80;99.90
22526;DHT22;11429;50.842;4.386;2022-09-09T14:15:06;21.70;99.90
22526;DHT22;11429;50.842;4.386;2022-09-09T14:17:33;21.60;99.90
22526;DHT22;11429;50.842;4.386;2022-09-09T14:20:03;21.40;99.90
22526;DHT22;11429;50.842;4.386;2022-09-09T14:22:33;21.10;99.90
22526;DHT22;11429;50.842;4.386;2022-09-09T14:24:59;21.00;99.90
22526;DHT22;11429;50.842;4.386;2022-09-09T14:27:25;20.90;99.90
22526;DHT22;11429;50.842;4.386;2022-09-09T14:29:55;21.00;99.90
22526;DHT22;11429;50.842;4.386;2022-09-09T14:32:21;20.90;99.90
22526;DHT22;11429;50.842;4.386;2022-09-09T14:34:47;21.00;99.90
22526;DHT22;11429;50.842;4.386;2022-09-09T14:37:16;21.10;99.90
22526;DHT22;11429;50.842;4.386;2022-09-09T14:39:42;21.20;99.90
22526;DHT22;11429;50.842;4.386;2022-09-09T14:42:12;21.50;99.90
22526;DHT22;11429;50.842;4.386;2022-09-09T14:44:38;21.30;99.90
22526;DHT22;11429;50.842;4.386;2022-09-09T14:47:05;21.30;99.90
22526;DHT22;11429;50.842;4.386;2022-09-09T14:49:31;21.40;99.90
22526;DHT22;11429;50.842;4.386;2022-09-09T14:51:57;21.00;99.90
22526;DHT22;11429;50.842;4.386;2022-09-09T14:54:22;20.80;99.90
22526;DHT22;11429;50.842;4.386;2022-09-09T14:56:48;20.90;99.90
22526;DHT22;11429;50.842;4.386;2022-09-09T14:59:14;20.80;99.90
22526;DHT22;11429;50.842;4.386;2022-09-09T15:01:40;20.80;99.90
22526;DHT22;11429;50.842;4.386;2022-09-09T15:04:06;20.90;99.90
22526;DHT22;11429;50.842;4.386;2022-09-09T15:06:34;20.90;99.90
22526;DHT22;11429;50.842;4.386;2022-09-09T15:09:01;21.10;99.90
22526;DHT22;11429;50.842;4.386;2022-09-09T15:11:33;21.10;99.90
22526;DHT22;11429;50.842;4.386;2022-09-09T15:14:07;20.80;99.90
22526;DHT22;11429;50.842;4.386;2022-09-09T15:16:33;20.70;99.90
22526;DHT22;11429;50.842;4.386;2022-09-09T15:19:00;20.90;99.90
22526;DHT22;11429;50.842;4.386;2022-09-09T15:21:29;21.10;99.90
22526;DHT22;11429;50.842;4.386;2022-09-09T15:23:56;21.10;99.90
22526;DHT22;11429;50.842;4.386;2022-09-09T15:26:22;21.10;99.90
22526;DHT22;11429;50.842;4.386;2022-09-09T15:28:48;21.00;99.90
22526;DHT22;11429;50.842;4.386;2022-09-09T15:31:26;21.00;99.90
22526;DHT22;11429;50.842;4.386;2022-09-09T15:34:11;21.00;99.90
22526;DHT22;11429;50.842;4.386;2022-09-09T15:36:42;20.90;99.90
22526;DHT22;11429;50.842;4.386;2022-09-09T15:39:10;20.90;99.90
22526;DHT22;11429;50.842;4.386;2022-09-09T15:41:38;20.70;99.90
22526;DHT22;11429;50.842;4.386;2022-09-09T15:44:05;20.60;99.90
22526;DHT22;11429;50.842;4.386;2022-09-09T15:46:36;20.60;99.90
22526;DHT22;11429;50.842;4.386;2022-09-09T15:49:17;20.50;99.90
22526;DHT22;11429;50.842;4.386;2022-09-09T15:51:45;20.70;99.90
22526;DHT22;11429;50.842;4.386;2022-09-09T15:54:16;20.90;99.90
22526;DHT22;11429;50.842;4.386;2022-09-09T15:56:44;20.90;99.90
22526;DHT22;11429;50.842;4.386;2022-09-09T15:59:10;20.90;99.90
22526;DHT22;11429;50.842;4.386;2022-09-09T16:01:36;21.00;99.90
22526;DHT22;11429;50.842;4.386;2022-09-09T16:04:05;20.80;99.90
22526;DHT22;11429;50.842;4.386;2022-09-09T16:06:31;20.80;99.90
22526;DHT22;11429;50.842;4.386;2022-09-09T16:08:58;20.80;99.90
22526;DHT22;11429;50.842;4.386;2022-09-09T16:11:30;20.70;99.90
22526;DHT22;11429;50.842;4.386;2022-09-09T16:13:56;20.60;99.90
22526;DHT22;11429;50.842;4.386;2022-09-09T16:16:24;20.60;99.90
22526;DHT22;11429;50.842;4.386;2022-09-09T16:18:53;20.50;99.90
22526;DHT22;11429;50.842;4.386;2022-09-09T16:21:28;20.40;99.90
22526;DHT22;11429;50.842;4.386;2022-09-09T16:23:54;20.20;99.90
22526;DHT22;11429;50.842;4.386;2022-09-09T16:26:20;20.10;99.90
22526;DHT22;11429;50.842;4.386;2022-09-09T16:28:47;20.10;99.90
22526;DHT22;11429;50.842;4.386;2022-09-09T16:31:16;20.10;99.90
22526;DHT22;11429;50.842;4.386;2022-09-09T16:33:44;19.90;99.90
22526;DHT22;11429;50.842;4.386;2022-09-09T16:36:16;19.70;99.90
22526;DHT22;11429;50.842;4.386;2022-09-09T16:38:42;19.40;99.90
22526;DHT22;11429;50.842;4.386;2022-09-09T16:41:10;19.30;99.90
22526;DHT22;11429;50.842;4.386;2022-09-09T16:43:37;19.50;99.90
22526;DHT22;11429;50.842;4.386;2022-09-09T16:46:17;19.40;99.90
22526;DHT22;11429;50.842;4.386;2022-09-09T16:48:44;19.50;99.90
22526;DHT22;11429;50.842;4.386;2022-09-09T16:53:46;19.30;99.90
22526;DHT22;11429;50.842;4.386;2022-09-09T16:56:17;19.50;99.90
22526;DHT22;11429;50.842;4.386;2022-09-09T16:58:52;19.50;99.90
22526;DHT22;11429;50.842;4.386;2022-09-09T17:01:18;19.40;99.90
22526;DHT22;11429;50.842;4.386;2022-09-09T17:03:44;19.40;99.90
22526;DHT22;11429;50.842;4.386;2022-09-09T17:06:14;19.60;99.90
22526;DHT22;11429;50.842;4.386;2022-09-09T17:08:40;19.50;99.90
22526;DHT22;11429;50.842;4.386;2022-09-09T17:11:17;19.40;99.90
22526;DHT22;11429;50.842;4.386;2022-09-09T17:13:47;19.20;99.90
22526;DHT22;11429;50.842;4.386;2022-09-09T17:16:16;19.20;99.90
22526;DHT22;11429;50.842;4.386;2022-09-09T17:18:42;19.00;99.90
22526;DHT22;11429;50.842;4.386;2022-09-09T17:21:11;19.10;99.90
22526;DHT22;11429;50.842;4.386;2022-09-09T17:23:37;19.10;99.90
22526;DHT22;11429;50.842;4.386;2022-09-09T17:26:06;19.00;99.90
22526;DHT22;11429;50.842;4.386;2022-09-09T17:28:38;19.00;99.90
22526;DHT22;11429;50.842;4.386;2022-09-09T17:31:06;19.00;99.90
22526;DHT22;11429;50.842;4.386;2022-09-09T17:33:33;18.90;99.90
22526;DHT22;11429;50.842;4.386;2022-09-09T17:36:02;18.80;99.90
22526;DHT22;11429;50.842;4.386;2022-09-09T17:38:28;18.80;99.90
22526;DHT22;11429;50.842;4.386;2022-09-09T17:41:08;18.70;99.90
22526;DHT22;11429;50.842;4.386;2022-09-09T17:43:35;18.70;99.90
22526;DHT22;11429;50.842;4.386;2022-09-09T17:46:13;18.70;99.90
22526;DHT22;11429;50.842;4.386;2022-09-09T17:48:40;18.70;99.90
22526;DHT22;11429;50.842;4.386;2022-09-09T17:51:08;18.70;99.90
22526;DHT22;11429;50.842;4.386;2022-09-09T17:53:38;18.70;99.90
22526;DHT22;11429;50.842;4.386;2022-09-09T17:56:05;18.60;99.90
22526;DHT22;11429;50.842;4.386;2022-09-09T17:58:31;18.50;99.90
22526;DHT22;11429;50.842;4.386;2022-09-09T18:01:11;18.50;99.90
22526;DHT22;11429;50.842;4.386;2022-09-09T18:03:42;18.50;99.90
22526;DHT22;11429;50.842;4.386;2022-09-09T18:06:11;18.50;99.90
22526;DHT22;11429;50.842;4.386;2022-09-09T18:08:42;18.60;99.90
22526;DHT22;11429;50.842;4.386;2022-09-09T18:11:08;18.50;99.90
22526;DHT22;11429;50.842;4.386;2022-09-09T18:13:34;18.40;99.90
22526;DHT22;11429;50.842;4.386;2022-09-09T18:16:00;18.50;99.90